Time;durP1;ratioP1;P1;durP2;ratioP2;P2;SDS_P1;SDS_P2;PMS_P1;PMS_P2;Temp;Humidity;BMP_temperature;BMP_pressure;BME280_temperature;BME280_humidity;BME280_pressure;Samples;Min_cycle;Max_cycle;Signal;HPM_P1;HPM_P2
2023/09/05 00:00:12;;;;;;;3.13;2.37;;;;;;;18.55;83.51;101249.34;5091831;28;20211;-74
2023/09/05 00:02:39;;;;;;;2.77;2.27;;;;;;;18.53;83.56;101247.66;5091861;28;20227;-74
2023/09/05 00:05:07;;;;;;;2.27;2.03;;;;;;;18.56;83.07;101255.47;5092103;28;20216;-74
2023/09/05 00:07:36;;;;;;;3.67;2.50;;;;;;;18.45;83.16;101263.81;5091619;28;20227;-73
2023/09/05 00:10:03;;;;;;;3.10;2.90;;;;;;;18.41;83.33;101256.94;5092070;28;20255;-74
2023/09/05 00:12:30;;;;;;;2.97;2.70;;;;;;;18.37;83.33;101255.31;5091647;28;20257;-74
2023/09/05 00:14:56;;;;;;;2.83;2.63;;;;;;;18.32;83.59;101260.78;5091875;28;20219;-74
2023/09/05 00:17:23;;;;;;;3.23;2.90;;;;;;;18.32;83.42;101257.31;5091700;28;20681;-74
2023/09/05 00:19:51;;;;;;;3.33;3.03;;;;;;;18.25;83.01;101265.47;5091814;28;20235;-74
2023/09/05 00:22:18;;;;;;;3.07;2.87;;;;;;;18.21;83.14;101255.91;5091109;28;20496;-74
2023/09/05 00:24:46;;;;;;;3.40;3.10;;;;;;;18.26;83.02;101259.25;5091727;28;20215;-74
2023/09/05 00:27:13;;;;;;;3.80;3.00;;;;;;;18.20;83.05;101263.91;5091543;28;20827;-73
2023/09/05 00:29:40;;;;;;;3.27;2.87;;;;;;;18.21;82.96;101263.81;5091734;28;20724;-74
2023/09/05 00:32:07;;;;;;;2.93;2.70;;;;;;;18.22;82.83;101270.84;5091418;28;20229;-74
2023/09/05 00:34:36;;;;;;;3.87;2.77;;;;;;;18.19;83.45;101268.31;5091604;28;20252;-74
2023/09/05 00:37:04;;;;;;;2.67;2.47;;;;;;;18.17;83.80;101242.88;5091243;28;20213;-73
2023/09/05 00:39:31;;;;;;;3.17;2.47;;;;;;;18.16;84.56;101227.94;5091680;28;20203;-74
2023/09/05 00:42:00;;;;;;;2.90;2.60;;;;;;;18.15;84.93;101219.13;5091308;28;20227;-74
2023/09/05 00:44:28;;;;;;;2.67;2.47;;;;;;;18.17;85.01;101216.44;5091695;28;20233;-74
2023/09/05 00:46:56;;;;;;;3.07;2.63;;;;;;;18.20;84.73;101214.56;5094716;28;20592;-74
2023/09/05 00:49:27;;;;;;;3.30;2.67;;;;;;;18.20;85.35;101211.91;5095021;28;20215;-74
2023/09/05 00:51:55;;;;;;;2.80;2.47;;;;;;;18.19;85.42;101204.03;5094982;28;20218;-74
2023/09/05 00:54:21;;;;;;;3.40;2.80;;;;;;;18.17;85.50;101204.09;5095075;28;20211;-74
2023/09/05 00:56:49;;;;;;;5.40;2.97;;;;;;;18.21;85.41;101208.31;5094902;28;20257;-74
2023/09/05 00:59:17;;;;;;;2.80;2.60;;;;;;;18.20;85.50;101203.13;5095023;28;20207;-74
2023/09/05 01:01:44;;;;;;;2.50;2.40;;;;;;;18.20;85.32;101203.13;5094856;28;20237;-74
2023/09/05 01:04:11;;;;;;;3.57;3.03;;;;;;;18.21;84.64;101204.84;5094828;28;20204;-73
2023/09/05 01:06:46;;;;;;;4.10;2.80;;;;;;;18.17;84.33;101217.28;5094970;28;20246;-74
2023/09/05 01:09:34;;;;;;;2.50;2.30;;;;;;;18.18;84.04;101224.31;5094680;28;20213;-74
2023/09/05 01:12:01;;;;;;;2.70;2.50;;;;;;;18.19;84.08;101228.66;5094456;28;20562;-74
2023/09/05 01:14:28;;;;;;;2.83;2.63;;;;;;;18.21;84.55;101232.13;5094666;28;20216;-74
2023/09/05 01:17:01;;;;;;;6.10;2.50;;;;;;;18.20;84.66;101219.84;5094671;28;20690;-74
2023/09/05 01:19:28;;;;;;;3.20;2.97;;;;;;;18.20;84.04;101227.75;5094609;28;20828;-74
2023/09/05 01:22:05;;;;;;;3.10;2.50;;;;;;;18.15;83.77;101242.91;5093893;28;20207;-74
2023/09/05 01:24:35;;;;;;;2.87;2.50;;;;;;;18.14;83.81;101237.72;5094575;28;20203;-74
2023/09/05 01:27:03;;;;;;;2.63;2.43;;;;;;;18.04;84.08;101247.75;5094639;28;20259;-74
2023/09/05 01:29:35;;;;;;;4.03;2.40;;;;;;;17.99;84.33;101237.34;5094762;28;20239;-74
2023/09/05 01:32:02;;;;;;;2.47;2.33;;;;;;;17.95;84.46;101234.88;5094106;28;20206;-74
2023/09/05 01:34:29;;;;;;;2.97;2.70;;;;;;;17.94;84.68;101233.16;5094331;28;20204;-74
2023/09/05 01:36:55;;;;;;;3.00;2.70;;;;;;;17.91;84.93;101223.56;5094447;28;20199;-74
2023/09/05 01:39:22;;;;;;;3.53;2.67;;;;;;;17.86;85.01;101221.09;5094592;28;20211;-74
2023/09/05 01:41:50;;;;;;;3.50;2.90;;;;;;;17.82;85.08;101215.97;5094128;28;20210;-74
2023/09/05 01:44:17;;;;;;;6.07;2.43;;;;;;;17.81;84.96;101211.59;5094271;28;20207;-74
2023/09/05 01:46:43;;;;;;;2.53;2.33;;;;;;;17.77;85.15;101210.84;5094129;28;20219;-74
2023/09/05 01:49:10;;;;;;;2.80;2.60;;;;;;;17.74;85.15;101200.41;5094007;28;20593;-74
2023/09/05 01:51:37;;;;;;;2.50;2.30;;;;;;;17.67;85.69;101199.75;5093836;28;20210;-74
2023/09/05 01:54:04;;;;;;;3.20;2.63;;;;;;;17.61;86.39;101192.03;5094098;28;20228;-74
2023/09/05 01:56:30;;;;;;;2.83;2.63;;;;;;;17.61;86.51;101178.00;5093607;28;20221;-74
2023/09/05 01:58:58;;;;;;;3.00;2.80;;;;;;;17.58;86.47;101178.97;5093412;28;20207;-74
2023/09/05 02:01:27;;;;;;;2.50;2.30;;;;;;;17.57;86.69;101179.03;5093728;28;20214;-74
2023/09/05 02:03:54;;;;;;;2.87;2.60;;;;;;;17.54;86.56;101172.09;5093659;28;20227;-74
2023/09/05 02:06:20;;;;;;;3.00;2.53;;;;;;;17.51;86.90;101163.41;5093926;28;20214;-74
2023/09/05 02:08:47;;;;;;;4.97;2.30;;;;;;;17.51;86.71;101169.53;5093448;28;20571;-74
2023/09/05 02:11:14;;;;;;;2.93;2.50;;;;;;;17.52;86.39;101167.75;5093650;28;20215;-74
2023/09/05 02:13:41;;;;;;;2.87;2.30;;;;;;;17.54;86.09;101179.13;5093381;28;20232;-74
2023/09/05 02:16:09;;;;;;;3.33;2.93;;;;;;;17.46;86.61;101169.72;5093351;28;20688;-74
2023/09/05 02:18:36;;;;;;;2.83;2.50;;;;;;;17.43;86.67;101161.03;5093582;28;20211;-73
2023/09/05 02:21:02;;;;;;;2.30;2.17;;;;;;;17.38;86.88;101158.56;5093692;28;20204;-74
2023/09/05 02:23:29;;;;;;;2.70;2.50;;;;;;;17.38;89.11;101132.19;5093320;28;20262;-74
2023/09/05 02:25:59;;;;;;;2.80;2.60;;;;;;;17.48;88.64;101122.13;5093295;28;20677;-74
2023/09/05 02:28:26;;;;;;;2.73;2.30;;;;;;;17.45;88.29;101125.75;5093197;28;20237;-73
2023/09/05 02:30:53;;;;;;;2.63;2.43;;;;;;;17.48;87.76;101130.03;5093227;28;20218;-74
2023/09/05 02:33:22;;;;;;;2.30;2.10;;;;;;;17.49;87.14;101141.50;5092400;28;20243;-74
2023/09/05 02:35:49;;;;;;;2.63;2.37;;;;;;;17.49;86.69;101152.91;5092892;28;20676;-73
2023/09/05 02:38:16;;;;;;;2.47;2.27;;;;;;;17.47;86.15;101162.66;5093074;28;20199;-74
2023/09/05 02:40:46;;;;;;;2.23;2.03;;;;;;;17.45;86.09;101173.25;5093222;28;20211;-73
2023/09/05 02:43:13;;;;;;;4.13;2.50;;;;;;;17.43;86.14;101180.38;5092772;28;20227;-73
2023/09/05 02:45:40;;;;;;;2.27;2.17;;;;;;;17.43;86.09;101174.25;5092924;28;20211;-74
2023/09/05 02:48:07;;;;;;;2.67;2.47;;;;;;;17.43;86.05;101167.16;5092448;28;20613;-73
2023/09/05 02:50:35;;;;;;;3.87;2.30;;;;;;;17.39;86.25;101173.47;5092976;28;20218;-74
2023/09/05 02:53:02;;;;;;;3.23;2.50;;;;;;;17.39;86.56;101168.19;5092163;28;20243;-73
2023/09/05 02:55:28;;;;;;;2.40;2.20;;;;;;;17.34;86.73;101164.84;5092863;28;20213;-73
2023/09/05 02:57:55;;;;;;;3.00;2.47;;;;;;;17.37;87.60;101146.28;5091956;28;20214;-73
2023/09/05 03:00:22;;;;;;;2.50;2.30;;;;;;;17.37;87.91;101135.72;5092096;28;20211;-73
2023/09/05 03:02:49;;;;;;;5.03;2.53;;;;;;;17.41;88.32;101123.28;5092450;28;20257;-73
2023/09/05 03:05:16;;;;;;;4.97;2.33;;;;;;;17.47;88.46;101121.28;5092164;28;20302;-73
2023/09/05 03:07:45;;;;;;;3.10;2.73;;;;;;;17.51;88.11;101123.81;5091194;28;20231;-73
2023/09/05 03:10:11;;;;;;;3.53;2.40;;;;;;;17.54;87.99;101126.31;5092524;28;20301;-74
2023/09/05 03:12:38;;;;;;;3.17;2.30;;;;;;;17.58;87.51;101138.50;5092004;28;20235;-73
2023/09/05 03:15:05;;;;;;;2.80;2.40;;;;;;;17.53;87.55;101146.59;5091764;28;20225;-74
2023/09/05 03:17:31;;;;;;;3.20;2.43;;;;;;;17.50;87.15;101149.31;5092416;28;20209;-74
2023/09/05 03:19:58;;;;;;;3.03;2.83;;;;;;;17.49;86.44;101155.53;5092299;28;20225;-74
2023/09/05 03:22:24;;;;;;;2.90;2.70;;;;;;;17.46;85.89;101163.56;5091199;28;20223;-72
2023/09/05 03:24:52;;;;;;;3.50;2.53;;;;;;;17.38;85.85;101174.41;5091769;28;20211;-73
2023/09/05 03:27:19;;;;;;;5.57;3.10;;;;;;;17.29;86.10;101166.81;5091872;28;20691;-73
2023/09/05 03:29:45;;;;;;;2.70;2.50;;;;;;;17.26;86.20;101167.78;5091617;28;20207;-73
2023/09/05 03:32:12;;;;;;;2.30;2.20;;;;;;;17.21;86.72;101164.44;5091951;28;20235;-73
2023/09/05 03:34:48;;;;;;;2.57;2.37;;;;;;;17.21;87.22;101153.88;5090935;28;20219;-72
2023/09/05 03:37:15;;;;;;;2.60;2.40;;;;;;;17.19;87.64;101154.84;5090809;28;20564;-72
2023/09/05 03:39:41;;;;;;;2.90;2.57;;;;;;;17.20;88.10;101149.50;5090450;28;20211;-72
2023/09/05 03:42:09;;;;;;;3.83;2.33;;;;;;;17.20;88.19;101143.38;5091926;28;20235;-72
2023/09/05 03:44:36;;;;;;;3.77;3.00;;;;;;;17.23;87.40;101149.41;5091937;28;20218;-73
2023/09/05 03:47:02;;;;;;;3.13;2.90;;;;;;;17.21;86.72;101161.81;5091981;28;20225;-72
2023/09/05 03:49:29;;;;;;;2.60;2.40;;;;;;;17.14;87.65;101167.34;5091778;28;20720;-72
2023/09/05 03:51:57;;;;;;;3.93;2.40;;;;;;;17.19;87.72;101147.81;5091594;28;20247;-72
2023/09/05 03:54:23;;;;;;;3.50;2.60;;;;;;;17.17;88.47;101138.22;5091376;28;20211;-72
2023/09/05 03:56:50;;;;;;;2.50;2.30;;;;;;;17.19;88.76;101123.19;5091324;28;20801;-72
2023/09/05 03:59:18;;;;;;;3.27;2.80;;;;;;;17.23;88.99;101114.25;5090990;28;20207;-72
2023/09/05 04:01:44;;;;;;;2.53;2.43;;;;;;;17.22;89.20;101110.78;5091423;28;20211;-73
2023/09/05 04:04:11;;;;;;;2.40;2.20;;;;;;;17.27;89.08;101115.88;5091816;28;20210;-73
2023/09/05 04:06:37;;;;;;;2.37;2.27;;;;;;;17.27;88.92;101106.16;5091915;28;20212;-73
2023/09/05 04:09:04;;;;;;;2.77;2.50;;;;;;;17.26;89.05;101112.38;5091097;28;20234;-72
2023/09/05 04:11:31;;;;;;;2.53;2.33;;;;;;;17.26;88.83;101115.00;5091849;28;20219;-72
2023/09/05 04:13:57;;;;;;;3.17;2.20;;;;;;;17.26;87.72;101140.50;5091220;28;20267;-72
2023/09/05 04:16:25;;;;;;;2.70;2.50;;;;;;;17.23;87.97;101146.78;5091201;28;20207;-73
2023/09/05 04:18:51;;;;;;;2.57;2.30;;;;;;;17.17;87.70;101154.91;5091296;28;20238;-72
2023/09/05 04:21:18;;;;;;;4.03;2.47;;;;;;;17.19;87.58;101161.00;5093371;28;20216;-72
2023/09/05 04:23:46;;;;;;;2.53;2.30;;;;;;;17.22;87.69;101157.38;5095151;28;20230;-73
2023/09/05 04:26:14;;;;;;;2.63;2.53;;;;;;;17.16;87.57;101163.72;5095439;28;20213;-72
2023/09/05 04:28:41;;;;;;;2.70;2.50;;;;;;;17.19;86.63;101184.75;5095450;28;20919;-73
2023/09/05 04:31:07;;;;;;;2.60;2.40;;;;;;;17.11;87.24;101180.66;5095354;28;20218;-72
2023/09/05 04:33:38;;;;;;;2.60;2.40;;;;;;;17.12;87.83;101172.66;5094810;28;20224;-72
2023/09/05 04:36:08;;;;;;;2.43;2.23;;;;;;;17.17;87.69;101169.88;5095088;28;20241;-72
2023/09/05 04:38:34;;;;;;;2.77;2.57;;;;;;;17.19;88.01;101160.13;5095073;28;20668;-72
2023/09/05 04:41:01;;;;;;;2.63;2.40;;;;;;;17.22;88.66;101149.47;5095147;28;20216;-72
2023/09/05 04:43:28;;;;;;;2.70;2.50;;;;;;;17.22;88.82;101142.44;5094844;28;20231;-72
2023/09/05 04:45:55;;;;;;;3.20;2.63;;;;;;;17.22;89.37;101131.00;5095039;28;20214;-73
2023/09/05 04:48:21;;;;;;;2.53;2.33;;;;;;;17.22;89.54;101123.97;5094954;28;20238;-72
2023/09/05 04:50:49;;;;;;;2.87;2.47;;;;;;;17.22;89.09;101129.25;5095245;28;20218;-72
2023/09/05 04:53:16;;;;;;;2.97;2.50;;;;;;;17.21;88.75;101124.84;5095189;28;20227;-72
2023/09/05 04:55:43;;;;;;;2.83;2.63;;;;;;;17.21;88.70;101124.00;5094978;28;20216;-73
2023/09/05 04:58:12;;;;;;;2.30;2.20;;;;;;;17.18;88.64;101129.38;5094023;28;20580;-72
2023/09/05 05:00:38;;;;;;;2.80;2.60;;;;;;;17.18;88.42;101127.59;5094536;28;20237;-72
2023/09/05 05:03:05;;;;;;;3.70;3.03;;;;;;;17.16;88.34;101129.44;5094402;28;20227;-72
2023/09/05 05:05:31;;;;;;;3.90;2.97;;;;;;;17.13;88.31;101139.25;5094587;28;20206;-72
2023/09/05 05:07:59;;;;;;;2.73;2.53;;;;;;;17.11;88.60;101136.66;5094221;28;20226;-72
2023/09/05 05:10:26;;;;;;;2.93;2.67;;;;;;;17.15;88.67;101138.28;5094601;28;20211;-73
2023/09/05 05:12:52;;;;;;;3.00;2.80;;;;;;;17.18;89.31;101132.00;5093489;28;20234;-72
2023/09/05 05:15:19;;;;;;;2.93;2.73;;;;;;;17.18;89.42;101122.31;5093405;28;20579;-72
2023/09/05 05:17:45;;;;;;;2.97;2.73;;;;;;;17.22;89.39;101123.97;5093699;28;20218;-72
2023/09/05 05:20:12;;;;;;;3.40;2.87;;;;;;;17.26;89.18;101127.31;5094219;28;20206;-72
2023/09/05 05:22:38;;;;;;;3.50;2.93;;;;;;;17.27;89.38;101119.34;5093981;28;20234;-72
2023/09/05 05:25:07;;;;;;;3.17;2.87;;;;;;;17.20;90.29;101114.34;5094552;28;20210;-72
2023/09/05 05:27:34;;;;;;;3.53;3.23;;;;;;;17.16;90.99;101092.50;5094622;28;20267;-73
2023/09/05 05:30:00;;;;;;;3.53;3.10;;;;;;;17.13;90.77;101097.03;5094276;28;20227;-72
2023/09/05 05:32:27;;;;;;;2.87;2.67;;;;;;;17.18;91.23;101082.75;5092327;28;20231;-72
2023/09/05 05:34:54;;;;;;;3.30;3.03;;;;;;;17.16;91.57;101073.16;5094286;28;20215;-75
2023/09/05 05:37:21;;;;;;;3.07;2.87;;;;;;;17.19;91.99;101055.47;5094090;28;20264;-75
2023/09/05 05:39:47;;;;;;;3.03;2.70;;;;;;;17.24;91.39;101076.38;5093666;28;20294;-75
2023/09/05 05:42:15;;;;;;;3.50;3.20;;;;;;;17.27;91.96;101053.41;5093644;28;20237;-72
2023/09/05 05:44:41;;;;;;;3.33;2.93;;;;;;;17.32;91.11;101071.69;5093858;28;20218;-72
2023/09/05 05:47:08;;;;;;;4.27;2.70;;;;;;;17.33;91.58;101065.50;5093674;28;20214;-72
2023/09/05 05:49:34;;;;;;;2.43;2.20;;;;;;;17.40;86.60;101116.28;5093283;28;20227;-73
2023/09/05 05:52:01;;;;;;;2.97;2.13;;;;;;;17.58;84.95;101197.44;5092517;28;20215;-72
2023/09/05 05:54:28;;;;;;;3.00;2.67;;;;;;;17.71;85.16;101208.41;5093474;28;20215;-72
2023/09/05 05:56:56;;;;;;;2.97;2.67;;;;;;;17.82;88.17;101176.34;5093874;28;20605;-73
2023/09/05 05:59:25;;;;;;;3.10;2.77;;;;;;;17.88;87.68;101178.78;5093944;28;20211;-72
2023/09/05 06:01:52;;;;;;;3.23;2.80;;;;;;;17.93;88.80;101146.91;5093168;28;20799;-73
2023/09/05 06:04:19;;;;;;;2.80;2.50;;;;;;;17.98;85.30;101217.16;5092821;28;20218;-73
2023/09/05 06:06:48;;;;;;;3.07;2.77;;;;;;;18.05;85.97;101194.00;5093914;28;20208;-73
2023/09/05 06:09:15;;;;;;;3.40;2.40;;;;;;;18.09;86.93;101198.22;5093143;28;20247;-74
2023/09/05 06:11:42;;;;;;;3.17;2.50;;;;;;;18.14;86.81;101191.00;5093014;28;20294;-74
2023/09/05 06:14:09;;;;;;;3.20;2.90;;;;;;;18.19;87.77;101164.41;5092467;28;20235;-74
2023/09/05 06:16:37;;;;;;;2.80;2.60;;;;;;;18.24;89.45;101128.09;5092581;28;20621;-74
2023/09/05 06:19:03;;;;;;;5.97;2.50;;;;;;;18.25;90.24;101109.53;5093251;28;20203;-74
2023/09/05 06:21:30;;;;;;;2.93;2.73;;;;;;;18.29;89.23;101130.53;5092974;28;20215;-75
2023/09/05 06:23:56;;;;;;;3.77;2.60;;;;;;;18.28;87.50;101153.47;5092838;28;20232;-75
2023/09/05 06:26:23;;;;;;;2.77;2.67;;;;;;;18.33;88.58;101155.91;5092473;28;20251;-75
2023/09/05 06:28:51;;;;;;;6.83;3.87;;;;;;;18.34;90.37;101125.94;5092716;28;20237;-75
2023/09/05 06:31:18;;;;;;;3.53;3.10;;;;;;;18.35;90.22;101115.28;5093034;28;20212;-75
2023/09/05 06:33:45;;;;;;;2.63;2.40;;;;;;;18.37;87.78;101131.09;5092236;28;20281;-75
2023/09/05 06:36:12;;;;;;;3.57;2.63;;;;;;;18.50;83.98;101251.28;5093044;28;20215;-75
2023/09/05 06:38:39;;;;;;;2.97;2.60;;;;;;;18.58;81.02;101283.59;5092695;28;20203;-75
2023/09/05 06:41:06;;;;;;;2.10;1.90;;;;;;;18.68;82.74;101248.84;5092890;28;20241;-75
2023/09/05 06:43:33;;;;;;;2.30;2.10;;;;;;;18.69;84.14;101274.34;5092177;28;20231;-75
2023/09/05 06:46:03;;;;;;;1.90;1.80;;;;;;;18.89;78.56;101372.38;5092416;28;20297;-75
2023/09/05 06:48:30;;;;;;;1.77;1.67;;;;;;;19.00;75.34;101385.16;5092431;28;20227;-75
2023/09/05 06:50:58;;;;;;;2.10;1.60;;;;;;;19.16;75.86;101472.78;5092610;28;20208;-75
2023/09/05 06:53:25;;;;;;;2.30;1.83;;;;;;;19.23;78.03;101453.94;5092638;28;20228;-75
2023/09/05 06:55:51;;;;;;;2.07;1.87;;;;;;;19.35;78.05;101454.41;5092674;28;20210;-75
2023/09/05 06:58:18;;;;;;;2.87;2.00;;;;;;;19.41;81.19;101431.19;5092834;28;20265;-75
2023/09/05 07:00:45;;;;;;;2.77;2.57;;;;;;;19.39;84.15;101305.94;5092146;28;20205;-75
2023/09/05 07:03:12;;;;;;;2.17;2.00;;;;;;;19.28;81.12;101323.19;5091944;28;20215;-75
2023/09/05 07:05:39;;;;;;;2.50;2.30;;;;;;;19.34;77.38;101405.00;5092090;28;20200;-75
2023/09/05 07:08:07;;;;;;;1.93;1.73;;;;;;;19.51;76.72;101465.25;5091850;28;20204;-75
2023/09/05 07:10:34;;;;;;;2.17;1.60;;;;;;;19.60;73.75;101499.28;5092086;28;20223;-75
2023/09/05 07:13:00;;;;;;;1.97;1.87;;;;;;;19.78;70.56;101550.72;5090117;28;20219;-76
2023/09/05 07:15:27;;;;;;;2.07;1.87;;;;;;;19.97;73.32;101570.25;5092506;28;20215;-75
2023/09/05 07:17:53;;;;;;;2.40;1.90;;;;;;;20.01;72.89;101533.91;5092457;28;20213;-76
2023/09/05 07:20:20;;;;;;;2.00;1.77;;;;;;;20.08;73.35;101569.84;5092188;28;20199;-75
2023/09/05 07:22:47;;;;;;;2.53;1.90;;;;;;;20.15;74.36;101534.19;5092062;28;20705;-75
2023/09/05 07:25:15;;;;;;;2.17;1.53;;;;;;;20.21;70.46;101605.53;5092169;28;20205;-76
2023/09/05 07:27:41;;;;;;;2.50;1.77;;;;;;;20.32;71.29;101610.41;5091967;28;20217;-76
2023/09/05 07:30:09;;;;;;;1.57;1.47;;;;;;;20.47;68.07;101656.63;5091362;28;20423;-76
2023/09/05 07:32:36;;;;;;;2.03;1.57;;;;;;;20.59;66.97;101713.66;5091210;28;20216;-76
2023/09/05 07:35:03;;;;;;;2.57;1.60;;;;;;;20.73;66.45;101761.75;5090864;28;20202;-76
2023/09/05 07:37:29;;;;;;;1.50;1.40;;;;;;;20.76;68.44;101728.91;5090706;28;20245;-75
2023/09/05 07:39:56;;;;;;;1.60;1.50;;;;;;;20.74;67.85;101749.34;5090811;28;20228;-75
2023/09/05 07:42:24;;;;;;;2.10;1.43;;;;;;;20.91;67.48;101744.22;5090135;28;20478;-75
2023/09/05 07:44:51;;;;;;;2.30;1.80;;;;;;;20.98;64.46;101792.59;5091306;28;20700;-75
2023/09/05 07:47:17;;;;;;;2.23;1.73;;;;;;;21.12;63.17;101838.03;5091309;28;20206;-76
2023/09/05 07:49:44;;;;;;;2.50;1.60;;;;;;;21.28;65.05;101832.09;5090989;28;20309;-75
2023/09/05 07:52:11;;;;;;;1.73;1.63;;;;;;;21.38;63.61;101838.75;5090266;28;20774;-76
2023/09/05 07:54:37;;;;;;;2.03;1.47;;;;;;;21.45;65.37;101831.41;5090610;28;20203;-74
2023/09/05 07:57:04;;;;;;;2.40;1.60;;;;;;;21.51;62.53;101852.44;5091244;28;20203;-73
2023/09/05 07:59:32;;;;;;;1.60;1.50;;;;;;;21.59;63.31;101863.59;5091335;28;20207;-74
2023/09/05 08:02:00;;;;;;;2.63;1.90;;;;;;;21.64;62.96;101844.78;5090573;28;20200;-74
2023/09/05 08:04:28;;;;;;;1.60;1.50;;;;;;;21.65;63.13;101847.38;5091132;28;20196;-73
2023/09/05 08:06:55;;;;;;;1.60;1.50;;;;;;;21.66;64.69;101859.72;5091207;28;20238;-73
2023/09/05 08:09:32;;;;;;;1.80;1.70;;;;;;;21.74;64.88;101828.38;5090896;28;20230;-74
2023/09/05 08:12:01;;;;;;;2.10;1.53;;;;;;;21.85;61.45;101864.25;5090011;28;20210;-73
2023/09/05 08:14:28;;;;;;;2.93;1.60;;;;;;;21.91;65.52;101861.34;5090717;28;20212;-73
2023/09/05 08:16:56;;;;;;;1.60;1.50;;;;;;;21.99;61.04;101899.94;5090905;28;20211;-73
2023/09/05 08:19:22;;;;;;;1.63;1.53;;;;;;;22.12;64.39;101841.78;5088613;28;20199;-73
2023/09/05 08:21:49;;;;;;;1.70;1.60;;;;;;;22.14;67.14;101800.00;5090612;28;20227;-73
2023/09/05 08:24:15;;;;;;;1.87;1.47;;;;;;;22.12;66.77;101747.81;5090535;28;20211;-73
2023/09/05 08:26:42;;;;;;;1.70;1.60;;;;;;;22.10;68.35;101702.69;5090641;28;20196;-73
2023/09/05 08:29:08;;;;;;;1.67;1.40;;;;;;;22.01;66.96;101682.69;5090889;28;20224;-73
2023/09/05 08:31:35;;;;;;;1.50;1.40;;;;;;;22.16;65.75;101731.66;5090694;28;20231;-73
2023/09/05 08:34:03;;;;;;;1.70;1.60;;;;;;;22.25;61.64;101796.88;5090298;28;20216;-73
2023/09/05 08:36:29;;;;;;;5.03;1.77;;;;;;;22.29;60.63;101813.56;5091063;28;20729;-73
2023/09/05 08:38:56;;;;;;;2.10;1.40;;;;;;;22.43;63.51;101850.19;5091152;28;20209;-73
2023/09/05 08:41:23;;;;;;;1.63;1.43;;;;;;;22.43;63.95;101773.00;5090887;28;20238;-73
2023/09/05 08:43:49;;;;;;;1.47;1.37;;;;;;;22.48;63.78;101816.25;5090772;28;20224;-73
2023/09/05 08:46:18;;;;;;;1.77;1.30;;;;;;;22.48;63.87;101760.38;5090689;28;20692;-73
2023/09/05 08:48:44;;;;;;;1.67;1.33;;;;;;;22.55;61.26;101821.19;5090859;28;20203;-73
2023/09/05 08:51:15;;;;;;;1.70;1.60;;;;;;;22.62;65.89;101779.19;5091588;28;20654;-73
2023/09/05 08:53:48;;;;;;;2.10;1.37;;;;;;;22.62;64.74;101757.03;5090266;28;20212;-73
2023/09/05 08:56:14;;;;;;;1.87;1.60;;;;;;;22.53;64.86;101732.56;5088786;28;20200;-73
2023/09/05 08:58:42;;;;;;;1.43;1.33;;;;;;;22.55;66.11;101746.66;5090480;28;20211;-73
2023/09/05 09:01:08;;;;;;;1.93;1.43;;;;;;;22.60;62.13;101757.09;5091335;28;20200;-73
2023/09/05 09:03:35;;;;;;;1.70;1.37;;;;;;;22.66;62.59;101836.66;5090562;28;20232;-73
2023/09/05 09:06:02;;;;;;;2.60;1.50;;;;;;;22.66;67.42;101835.81;5091252;28;20211;-73
2023/09/05 09:08:39;;;;;;;1.50;1.40;;;;;;;22.76;63.70;101770.53;5094557;28;20200;-73
2023/09/05 09:11:06;;;;;;;1.50;1.40;;;;;;;22.83;66.22;101771.94;5094386;28;20238;-73
2023/09/05 09:13:33;;;;;;;1.50;1.40;;;;;;;22.91;62.50;101795.53;5093762;28;20702;-73
2023/09/05 09:16:01;;;;;;;1.30;1.20;;;;;;;22.93;62.83;101804.31;5094102;28;20202;-73
2023/09/05 09:18:31;;;;;;;2.30;1.40;;;;;;;22.88;63.97;101743.28;5093415;28;20670;-73
2023/09/05 09:21:02;;;;;;;2.13;1.30;;;;;;;22.99;61.44;101793.34;5091682;28;20662;-73
2023/09/05 09:23:30;;;;;;;2.03;1.17;;;;;;;22.97;59.43;101817.41;5093642;28;20259;-73
2023/09/05 09:25:59;;;;;;;1.50;1.40;;;;;;;23.14;58.83;101866.34;5094552;28;20666;-73
2023/09/05 09:28:28;;;;;;;1.40;1.30;;;;;;;23.26;64.07;101849.75;5093774;28;20578;-73
2023/09/05 09:30:57;;;;;;;1.23;1.13;;;;;;;23.30;64.50;101791.84;5094158;28;20777;-73
2023/09/05 09:33:24;;;;;;;1.30;1.20;;;;;;;23.38;61.30;101825.16;5093477;28;20573;-73
2023/09/05 09:36:07;;;;;;;2.83;1.30;;;;;;;23.44;59.14;101861.28;5094023;28;20207;-73
2023/09/05 09:38:34;;;;;;;1.37;1.20;;;;;;;23.42;59.79;101871.16;5093467;28;20661;-73
2023/09/05 09:41:06;;;;;;;5.67;1.43;;;;;;;23.54;56.97;101931.00;5093387;28;20692;-73
2023/09/05 09:43:34;;;;;;;1.30;1.20;;;;;;;23.58;57.55;101928.09;5093693;28;20289;-73
2023/09/05 09:46:01;;;;;;;1.50;1.10;;;;;;;23.69;58.64;101924.06;5094124;28;20574;-73
2023/09/05 09:48:30;;;;;;;1.53;1.10;;;;;;;23.70;60.20;101899.09;5093480;28;20273;-73
2023/09/05 09:50:59;;;;;;;1.40;1.30;;;;;;;23.78;57.02;101956.50;5093417;28;20641;-73
2023/09/05 09:53:34;;;;;;;1.13;1.10;;;;;;;23.83;60.48;101876.25;5092388;28;20250;-73
2023/09/05 09:56:03;;;;;;;1.63;1.40;;;;;;;23.84;56.72;101883.28;5092707;28;20294;-73
2023/09/05 09:58:31;;;;;;;1.00;1.00;;;;;;;23.92;54.11;101976.25;5092148;28;20203;-73
2023/09/05 10:01:00;;;;;;;1.30;1.20;;;;;;;24.10;53.89;101993.09;5093335;28;20559;-73
2023/09/05 10:03:27;;;;;;;1.33;1.23;;;;;;;24.25;53.00;102048.38;5092205;28;20220;-73
2023/09/05 10:06:04;;;;;;;1.29;1.10;;;;;;;24.27;52.98;102062.50;4680561;28;10002882;-73
2023/09/05 10:08:32;;;;;;;1.73;1.03;;;;;;;24.42;52.52;102041.28;5089348;28;20261;-73
2023/09/05 10:10:59;;;;;;;1.43;1.10;;;;;;;24.55;51.91;102082.47;5090635;28;20590;-72
2023/09/05 10:13:32;;;;;;;1.57;1.47;;;;;;;24.63;54.33;102082.09;5088898;28;20224;-73
2023/09/05 10:16:01;;;;;;;1.60;1.30;;;;;;;24.72;54.41;102001.50;5089277;28;20260;-73
2023/09/05 10:18:28;;;;;;;1.83;1.10;;;;;;;24.69;51.91;102053.25;5089608;28;20212;-73
2023/09/05 10:20:58;;;;;;;1.40;1.30;;;;;;;24.79;51.23;102101.69;5089979;28;20211;-73
2023/09/05 10:23:26;;;;;;;1.30;1.10;;;;;;;24.88;51.68;102113.72;5090416;28;20228;-73
2023/09/05 10:25:54;;;;;;;1.17;1.07;;;;;;;24.98;51.28;102115.81;5090281;28;20551;-74
2023/09/05 10:28:20;;;;;;;1.07;1.00;;;;;;;25.06;50.79;102112.75;5088793;28;20211;-74
2023/09/05 10:30:49;;;;;;;1.27;1.17;;;;;;;25.17;55.78;102054.25;5089926;28;20225;-73
2023/09/05 10:33:17;;;;;;;1.20;1.10;;;;;;;25.18;55.52;101977.59;5090997;28;20224;-72
2023/09/05 10:35:45;;;;;;;1.47;1.17;;;;;;;25.11;57.85;101883.56;5092815;28;20215;-73
2023/09/05 10:38:13;;;;;;;1.07;0.97;;;;;;;25.24;56.71;101936.31;5092774;28;20196;-71
2023/09/05 10:40:41;;;;;;;1.23;1.10;;;;;;;25.18;51.35;101942.84;5091684;28;20200;-73
2023/09/05 10:43:09;;;;;;;1.57;1.47;;;;;;;25.33;50.66;102027.56;5092417;28;20709;-73
2023/09/05 10:45:38;;;;;;;1.20;0.90;;;;;;;25.48;50.29;102081.97;5092452;28;20674;-72
2023/09/05 10:48:09;;;;;;;1.53;1.10;;;;;;;25.64;50.55;102076.63;5092525;28;20288;-73
2023/09/05 10:51:10;;;;;;;1.23;1.17;;;;;;;25.80;51.92;102047.19;5092556;28;20235;-73
2023/09/05 10:53:38;;;;;;;1.40;1.30;;;;;;;25.83;52.39;102022.94;5092627;28;20230;-73
2023/09/05 10:56:05;;;;;;;1.43;1.33;;;;;;;25.80;54.38;101971.41;5092483;28;20211;-73
2023/09/05 10:58:51;;;;;;;1.17;1.10;;;;;;;25.82;54.45;101900.81;5092091;28;20204;-73
2023/09/05 11:01:54;;;;;;;2.43;1.23;;;;;;;25.94;55.64;101896.56;5091539;28;20812;-73
2023/09/05 11:04:29;;;;;;;3.07;1.07;;;;;;;25.88;57.37;101859.47;5009835;28;20207;-73
2023/09/05 11:06:58;;;;;;;2.17;1.53;;;;;;;25.95;59.43;101772.56;5009792;28;20214;-73
2023/09/05 11:09:25;;;;;;;1.83;1.40;;;;;;;26.00;55.09;101793.66;5053311;28;20201;-73
2023/09/05 11:11:52;;;;;;;1.97;1.30;;;;;;;26.18;57.28;101813.91;5091113;28;20229;-73
2023/09/05 11:14:30;;;;;;;2.47;1.40;;;;;;;26.23;54.06;101848.44;5092121;28;20629;-73
2023/09/05 11:16:56;;;;;;;1.30;1.30;;;;;;;26.46;56.55;101830.91;5091729;28;20223;-73
2023/09/05 11:19:37;;;;;;;1.60;1.30;;;;;;;26.54;53.74;101850.00;5091882;28;20210;-74
2023/09/05 11:22:17;;;;;;;1.17;1.17;;;;;;;26.75;52.80;101912.97;5091431;28;20214;-73
2023/09/05 11:24:48;;;;;;;1.10;1.00;;;;;;;26.98;53.17;101920.47;5091836;28;20202;-73
2023/09/05 11:27:17;;;;;;;1.30;1.20;;;;;;;27.10;55.42;101885.69;5092345;28;20662;-73